VJC600 VVTS-VVCR
Flight info
| Callsign | VJC600 |
|---|---|
| Flight time | 0h 37m |
| Altitude | 23000 |
| Route | BIXEX5C BIXEX W15 BANKE BANKE1C |
| Aircraft | A21N/M-SDE2E3FGHIRWXY/LB1 |
Departure
| Time | 2026-04-24 05:34 |
|---|---|
| Airport | Tan Son Nhat International Airport (VVTS) |
Arrival
| Time | 2026-04-24 06:12 |
|---|---|
| Airport | Cam Ranh International Airport / Cam Ranh Air Base (VVCR) |
| Time | Latitude | Longitude | Altitude | Speed | Heading |
|---|---|---|---|---|---|
| 2026-04-24 05:16 | 10.82091 | 106.66826 | 44 ft | 0 kts | 8° |
| 2026-04-24 05:31 | 10.82100 | 106.66827 | 44 ft | 3 kts | 8° |
| 2026-04-24 05:31 | 10.82123 | 106.66832 | 44 ft | 4 kts | 14° |
| 2026-04-24 05:31 | 10.82152 | 106.66850 | 41 ft | 6 kts | 52° |
| 2026-04-24 05:32 | 10.82172 | 106.66893 | 44 ft | 8 kts | 67° |
| 2026-04-24 05:32 | 10.82194 | 106.66951 | 44 ft | 10 kts | 69° |
| 2026-04-24 05:32 | 10.82236 | 106.67008 | 44 ft | 12 kts | 9° |
| 2026-04-24 05:32 | 10.82316 | 106.66980 | 44 ft | 13 kts | 311° |
| 2026-04-24 05:33 | 10.82353 | 106.66948 | 43 ft | 7 kts | 337° |
| 2026-04-24 05:33 | 10.82358 | 106.66912 | 43 ft | 0 kts | 247° |
| 2026-04-24 05:34 | 10.82180 | 106.66442 | 42 ft | 100 kts | 248° |
| 2026-04-24 05:34 | 10.81851 | 106.65583 | 45 ft | 157 kts | 249° |
| 2026-04-24 05:34 | 10.81442 | 106.64444 | 321 ft | 175 kts | 248° |
| 2026-04-24 05:34 | 10.80983 | 106.63273 | 760 ft | 181 kts | 244° |
| 2026-04-24 05:35 | 10.80517 | 106.62069 | 1335 ft | 190 kts | 245° |
| 2026-04-24 05:35 | 10.80026 | 106.60760 | 1772 ft | 205 kts | 246° |
| 2026-04-24 05:35 | 10.79486 | 106.59342 | 2261 ft | 225 kts | 248° |
| 2026-04-24 05:35 | 10.78914 | 106.57809 | 2866 ft | 237 kts | 248° |
| 2026-04-24 05:36 | 10.78265 | 106.56259 | 3657 ft | 239 kts | 234° |
| 2026-04-24 05:36 | 10.77047 | 106.55146 | 4415 ft | 238 kts | 202° |
| 2026-04-24 05:36 | 10.75437 | 106.54823 | 5130 ft | 238 kts | 172° |
| 2026-04-24 05:36 | 10.73877 | 106.55344 | 5822 ft | 239 kts | 146° |
| 2026-04-24 05:37 | 10.72532 | 106.56361 | 6539 ft | 243 kts | 140° |
| 2026-04-24 05:37 | 10.71220 | 106.57419 | 7244 ft | 245 kts | 141° |
| 2026-04-24 05:37 | 10.69862 | 106.58490 | 7942 ft | 249 kts | 142° |
| 2026-04-24 05:37 | 10.68474 | 106.59561 | 8651 ft | 252 kts | 143° |
| 2026-04-24 05:38 | 10.67070 | 106.60631 | 9391 ft | 253 kts | 143° |
| 2026-04-24 05:38 | 10.65630 | 106.61724 | 10046 ft | 257 kts | 142° |
| 2026-04-24 05:38 | 10.64451 | 106.63051 | 10638 ft | 261 kts | 117° |
| 2026-04-24 05:38 | 10.64057 | 106.64865 | 11078 ft | 275 kts | 86° |
| 2026-04-24 05:39 | 10.64581 | 106.66799 | 11340 ft | 296 kts | 69° |
| 2026-04-24 05:39 | 10.65426 | 106.68778 | 11586 ft | 315 kts | 68° |
| 2026-04-24 05:39 | 10.66318 | 106.70890 | 11823 ft | 334 kts | 69° |
| 2026-04-24 05:39 | 10.67222 | 106.73135 | 12071 ft | 352 kts | 69° |
| 2026-04-24 05:40 | 10.68148 | 106.75491 | 12456 ft | 364 kts | 70° |
| 2026-04-24 05:40 | 10.69075 | 106.77899 | 13050 ft | 368 kts | 70° |
| 2026-04-24 05:40 | 10.70006 | 106.80343 | 13692 ft | 372 kts | 70° |
| 2026-04-24 05:40 | 10.70926 | 106.82810 | 14234 ft | 376 kts | 71° |
| 2026-04-24 05:41 | 10.71511 | 106.85405 | 14766 ft | 378 kts | 86° |
| 2026-04-24 05:41 | 10.71577 | 106.88088 | 15312 ft | 382 kts | 91° |
| 2026-04-24 05:41 | 10.71557 | 106.90801 | 15820 ft | 386 kts | 91° |
| 2026-04-24 05:41 | 10.71538 | 106.93545 | 16352 ft | 390 kts | 91° |
| 2026-04-24 05:42 | 10.71528 | 106.96320 | 16866 ft | 395 kts | 91° |
| 2026-04-24 05:42 | 10.71521 | 106.99125 | 17378 ft | 399 kts | 91° |
| 2026-04-24 05:42 | 10.71516 | 107.01957 | 17890 ft | 402 kts | 91° |
| 2026-04-24 05:42 | 10.71517 | 107.04813 | 18350 ft | 406 kts | 91° |
| 2026-04-24 05:43 | 10.71514 | 107.07696 | 18773 ft | 410 kts | 91° |
| 2026-04-24 05:43 | 10.71511 | 107.10603 | 19203 ft | 413 kts | 91° |
| 2026-04-24 05:43 | 10.71511 | 107.13532 | 19641 ft | 416 kts | 91° |
| 2026-04-24 05:43 | 10.71505 | 107.16448 | 20083 ft | 419 kts | 91° |
| 2026-04-24 05:44 | 10.71506 | 107.19415 | 20519 ft | 422 kts | 91° |
| 2026-04-24 05:44 | 10.71504 | 107.22413 | 20934 ft | 425 kts | 91° |
| 2026-04-24 05:44 | 10.71507 | 107.25428 | 21375 ft | 428 kts | 91° |
| 2026-04-24 05:44 | 10.71622 | 107.28465 | 21781 ft | 432 kts | 83° |
| 2026-04-24 05:45 | 10.72331 | 107.31434 | 22194 ft | 435 kts | 69° |
| 2026-04-24 05:45 | 10.73758 | 107.34145 | 22599 ft | 438 kts | 54° |
| 2026-04-24 05:45 | 10.75812 | 107.36441 | 22857 ft | 442 kts | 42° |
| 2026-04-24 05:45 | 10.78141 | 107.38537 | 22909 ft | 453 kts | 40° |
| 2026-04-24 05:46 | 10.80554 | 107.40673 | 22905 ft | 466 kts | 40° |
| 2026-04-24 05:46 | 10.82994 | 107.42867 | 22890 ft | 470 kts | 40° |
| 2026-04-24 05:46 | 10.85442 | 107.45086 | 22879 ft | 471 kts | 41° |
| 2026-04-24 05:46 | 10.87878 | 107.47310 | 22873 ft | 470 kts | 41° |
| 2026-04-24 05:47 | 10.90311 | 107.49538 | 22872 ft | 471 kts | 41° |
| 2026-04-24 05:47 | 10.92748 | 107.51768 | 22867 ft | 471 kts | 41° |
| 2026-04-24 05:47 | 10.95183 | 107.53995 | 22867 ft | 473 kts | 41° |
| 2026-04-24 05:47 | 10.97660 | 107.56260 | 22872 ft | 482 kts | 41° |
| 2026-04-24 05:48 | 11.00158 | 107.58549 | 22869 ft | 484 kts | 41° |
| 2026-04-24 05:48 | 11.02658 | 107.60843 | 22875 ft | 484 kts | 41° |
| 2026-04-24 05:48 | 11.05158 | 107.63134 | 22874 ft | 484 kts | 41° |
| 2026-04-24 05:48 | 11.07662 | 107.65427 | 22873 ft | 484 kts | 41° |
| 2026-04-24 05:49 | 11.10162 | 107.67722 | 22873 ft | 484 kts | 41° |
| 2026-04-24 05:49 | 11.12667 | 107.70020 | 22873 ft | 484 kts | 41° |
| 2026-04-24 05:49 | 11.15135 | 107.72282 | 22873 ft | 484 kts | 41° |
| 2026-04-24 05:49 | 11.17637 | 107.74577 | 22877 ft | 484 kts | 41° |
| 2026-04-24 05:50 | 11.20138 | 107.76872 | 22875 ft | 485 kts | 41° |
| 2026-04-24 05:50 | 11.22645 | 107.79175 | 22877 ft | 485 kts | 41° |
| 2026-04-24 05:50 | 11.25148 | 107.81472 | 22875 ft | 484 kts | 41° |
| 2026-04-24 05:50 | 11.27658 | 107.83775 | 22877 ft | 486 kts | 41° |
| 2026-04-24 05:51 | 11.30163 | 107.86077 | 22880 ft | 484 kts | 41° |
| 2026-04-24 05:51 | 11.32661 | 107.88378 | 22881 ft | 484 kts | 41° |
| 2026-04-24 05:51 | 11.35162 | 107.90676 | 22882 ft | 483 kts | 41° |
| 2026-04-24 05:51 | 11.37669 | 107.92978 | 22886 ft | 485 kts | 41° |
| 2026-04-24 05:52 | 11.40170 | 107.95277 | 22880 ft | 484 kts | 41° |
| 2026-04-24 05:52 | 11.42673 | 107.97578 | 22879 ft | 485 kts | 41° |
| 2026-04-24 05:52 | 11.45181 | 107.99884 | 22882 ft | 485 kts | 41° |
| 2026-04-24 05:52 | 11.47680 | 108.02188 | 22883 ft | 484 kts | 41° |
| 2026-04-24 05:53 | 11.50181 | 108.04489 | 22884 ft | 484 kts | 41° |
| 2026-04-24 05:53 | 11.52677 | 108.06785 | 22882 ft | 483 kts | 41° |
| 2026-04-24 05:53 | 11.55176 | 108.09086 | 22881 ft | 484 kts | 41° |
| 2026-04-24 05:53 | 11.57676 | 108.11388 | 22882 ft | 484 kts | 41° |
| 2026-04-24 05:54 | 11.60107 | 108.13702 | 22874 ft | 485 kts | 45° |
| 2026-04-24 05:54 | 11.62190 | 108.16407 | 22882 ft | 486 kts | 54° |
| 2026-04-24 05:54 | 11.64126 | 108.19227 | 22883 ft | 485 kts | 54° |
| 2026-04-24 05:54 | 11.66061 | 108.22045 | 22882 ft | 485 kts | 54° |
| 2026-04-24 05:55 | 11.68008 | 108.24862 | 22882 ft | 486 kts | 54° |
| 2026-04-24 05:55 | 11.69954 | 108.27670 | 22881 ft | 485 kts | 54° |
| 2026-04-24 05:55 | 11.71909 | 108.30483 | 22877 ft | 486 kts | 54° |
| 2026-04-24 05:55 | 11.73861 | 108.33291 | 22878 ft | 485 kts | 54° |
| 2026-04-24 05:56 | 11.75585 | 108.36243 | 22876 ft | 487 kts | 66° |
| 2026-04-24 05:56 | 11.76656 | 108.39518 | 22888 ft | 486 kts | 75° |
| 2026-04-24 05:56 | 11.77533 | 108.42850 | 22891 ft | 487 kts | 75° |
| 2026-04-24 05:56 | 11.78414 | 108.46172 | 22896 ft | 484 kts | 75° |
| 2026-04-24 05:57 | 11.79319 | 108.49488 | 22894 ft | 485 kts | 75° |
| 2026-04-24 05:57 | 11.80239 | 108.52801 | 22893 ft | 484 kts | 74° |
| 2026-04-24 05:57 | 11.81145 | 108.56055 | 22348 ft | 473 kts | 75° |
| 2026-04-24 05:57 | 11.82046 | 108.59284 | 21308 ft | 473 kts | 75° |
| 2026-04-24 05:58 | 11.82943 | 108.62495 | 20463 ft | 468 kts | 75° |
| 2026-04-24 05:58 | 11.83818 | 108.65630 | 19689 ft | 463 kts | 75° |
| 2026-04-24 05:58 | 11.84705 | 108.68772 | 18874 ft | 458 kts | 75° |
| 2026-04-24 05:58 | 11.85589 | 108.71888 | 18016 ft | 455 kts | 75° |
| 2026-04-24 05:59 | 11.86465 | 108.74977 | 17151 ft | 450 kts | 75° |
| 2026-04-24 05:59 | 11.87324 | 108.78025 | 16341 ft | 444 kts | 75° |
| 2026-04-24 05:59 | 11.88173 | 108.81035 | 15603 ft | 438 kts | 74° |
| 2026-04-24 05:59 | 11.89063 | 108.83981 | 14918 ft | 432 kts | 70° |
| 2026-04-24 06:00 | 11.89921 | 108.85803 | 14443 ft | 428 kts | 59° |
| 2026-04-24 06:00 | 11.91775 | 108.88142 | 13747 ft | 422 kts | 43° |
| 2026-04-24 06:00 | 11.94035 | 108.90003 | 13080 ft | 412 kts | 37° |
| 2026-04-24 06:00 | 11.96272 | 108.91719 | 12671 ft | 392 kts | 37° |
| 2026-04-24 06:01 | 11.98400 | 108.93356 | 12366 ft | 373 kts | 37° |
| 2026-04-24 06:01 | 12.00414 | 108.94920 | 12107 ft | 354 kts | 37° |
| 2026-04-24 06:01 | 12.02321 | 108.96410 | 11848 ft | 337 kts | 37° |
| 2026-04-24 06:01 | 12.04143 | 108.97838 | 11553 ft | 323 kts | 37° |
| 2026-04-24 06:02 | 12.05889 | 108.99206 | 11269 ft | 309 kts | 37° |
| 2026-04-24 06:02 | 12.07570 | 109.00525 | 10869 ft | 302 kts | 37° |
| 2026-04-24 06:02 | 12.09222 | 109.01827 | 10372 ft | 298 kts | 37° |
| 2026-04-24 06:02 | 12.10865 | 109.03119 | 9838 ft | 297 kts | 37° |
| 2026-04-24 06:03 | 12.13034 | 109.04824 | 9066 ft | 296 kts | 37° |
| 2026-04-24 06:03 | 12.14136 | 109.05690 | 8701 ft | 295 kts | 37° |
| 2026-04-24 06:03 | 12.15755 | 109.06960 | 8163 ft | 293 kts | 37° |
| 2026-04-24 06:03 | 12.17367 | 109.08226 | 7646 ft | 290 kts | 37° |
| 2026-04-24 06:04 | 12.18959 | 109.09478 | 7126 ft | 287 kts | 38° |
| 2026-04-24 06:04 | 12.20502 | 109.10694 | 6749 ft | 280 kts | 38° |
| 2026-04-24 06:04 | 12.21916 | 109.12002 | 6419 ft | 270 kts | 54° |
| 2026-04-24 06:04 | 12.22659 | 109.13722 | 6016 ft | 264 kts | 82° |
| 2026-04-24 06:05 | 12.22518 | 109.15556 | 5642 ft | 258 kts | 106° |
| 2026-04-24 06:05 | 12.21925 | 109.17280 | 5209 ft | 256 kts | 110° |
| 2026-04-24 06:05 | 12.21301 | 109.18967 | 4895 ft | 250 kts | 110° |
| 2026-04-24 06:05 | 12.20706 | 109.20621 | 4569 ft | 246 kts | 109° |
| 2026-04-24 06:06 | 12.20136 | 109.22253 | 4312 ft | 241 kts | 109° |
| 2026-04-24 06:06 | 12.19589 | 109.23849 | 4032 ft | 236 kts | 109° |
| 2026-04-24 06:06 | 12.19062 | 109.25401 | 3772 ft | 226 kts | 109° |
| 2026-04-24 06:06 | 12.18411 | 109.26806 | 3509 ft | 213 kts | 128° |
| 2026-04-24 06:07 | 12.17275 | 109.27711 | 3148 ft | 208 kts | 160° |
| 2026-04-24 06:07 | 12.15856 | 109.27851 | 2936 ft | 204 kts | 188° |
| 2026-04-24 06:07 | 12.14550 | 109.27482 | 2787 ft | 188 kts | 199° |
| 2026-04-24 06:07 | 12.13357 | 109.27007 | 2568 ft | 180 kts | 200° |
| 2026-04-24 06:08 | 12.12210 | 109.26560 | 2336 ft | 173 kts | 198° |
| 2026-04-24 06:08 | 12.11102 | 109.26161 | 2103 ft | 165 kts | 196° |
| 2026-04-24 06:08 | 12.10459 | 109.25935 | 2006 ft | 160 kts | 197° |
| 2026-04-24 06:08 | 12.09457 | 109.25584 | 1821 ft | 142 kts | 195° |
| 2026-04-24 06:09 | 12.08561 | 109.25271 | 1631 ft | 134 kts | 194° |
| 2026-04-24 06:09 | 12.07681 | 109.24965 | 1439 ft | 133 kts | 195° |
| 2026-04-24 06:09 | 12.06811 | 109.24662 | 1270 ft | 131 kts | 195° |
| 2026-04-24 06:09 | 12.05938 | 109.24357 | 1108 ft | 133 kts | 196° |
| 2026-04-24 06:10 | 12.05070 | 109.24055 | 949 ft | 133 kts | 196° |
| 2026-04-24 06:10 | 12.04190 | 109.23750 | 782 ft | 135 kts | 191° |
| 2026-04-24 06:10 | 12.03299 | 109.23439 | 603 ft | 138 kts | 191° |
| 2026-04-24 06:11 | 12.01535 | 109.22821 | 223 ft | 133 kts | 195° |
| 2026-04-24 06:11 | 12.00653 | 109.22513 | 85 ft | 134 kts | 193° |
| 2026-04-24 06:11 | 11.99819 | 109.22226 | 57 ft | 112 kts | 195° |
| 2026-04-24 06:11 | 11.99250 | 109.22032 | 56 ft | 61 kts | 197° |
| 2026-04-24 06:12 | 11.98994 | 109.21935 | 54 ft | 24 kts | 239° |
| 2026-04-24 06:12 | 11.99028 | 109.21774 | 57 ft | 25 kts | 287° |
| 2026-04-24 06:12 | 11.99044 | 109.21603 | 57 ft | 26 kts | 223° |
| 2026-04-24 06:12 | 11.98938 | 109.21450 | 56 ft | 28 kts | 287° |
| 2026-04-24 06:13 | 11.99102 | 109.21455 | 52 ft | 29 kts | 19° |
| 2026-04-24 06:13 | 11.99298 | 109.21520 | 58 ft | 30 kts | 20° |
| 2026-04-24 06:13 | 11.99501 | 109.21592 | 58 ft | 32 kts | 18° |
| 2026-04-24 06:13 | 11.99713 | 109.21666 | 56 ft | 33 kts | 18° |
| 2026-04-24 06:14 | 11.99933 | 109.21743 | 53 ft | 34 kts | 19° |
| 2026-04-24 06:14 | 12.00119 | 109.21807 | 51 ft | 27 kts | 18° |
| 2026-04-24 06:14 | 12.00301 | 109.21870 | 58 ft | 28 kts | 19° |
| 2026-04-24 06:14 | 12.00492 | 109.21937 | 58 ft | 30 kts | 19° |
| 2026-04-24 06:15 | 12.00692 | 109.22005 | 58 ft | 31 kts | 19° |
| 2026-04-24 06:15 | 12.00807 | 109.21997 | 55 ft | 16 kts | 290° |
| 2026-04-24 06:15 | 12.00833 | 109.21884 | 58 ft | 18 kts | 232° |
| 2026-04-24 06:15 | 12.00719 | 109.21832 | 58 ft | 20 kts | 234° |
| 2026-04-24 06:16 | 12.00743 | 109.21723 | 57 ft | 5 kts | 287° |
| 2026-04-24 06:16 | 12.00752 | 109.21695 | 58 ft | 1 kts | 289° |
| 2026-04-24 06:16 | 12.00752 | 109.21692 | 58 ft | 0 kts | 288° |
| 2026-04-24 06:16 | 12.00753 | 109.21690 | 58 ft | 0 kts | 288° |
| 2026-04-24 06:17 | 12.00755 | 109.21685 | 58 ft | 0 kts | 288° |